Eco Spitfire — 2HEA4 — position and weather

sailwx.info

Track history (hours):
 
Tides and Currents Weather Stations Pressure Air Temp Water Temp Dewpoint Dewpoint Depression Visibility Wind Speed Wind Dir Waves Ship Positions

Eco Spitfire

Last reported at 2017-Oct-31 03:06 UTC. Time now 2017-Nov-23 20:43 UTC.
Position N 01°18' E 104°10'.
Warning: this ship's position is 23 days out of date.

Length 180 m; draft 8.7 m.

Type: Ship. MMSI: 235102885.

Date/timePositionNaut miles runAvg speedWind from/ knotsBaromVisibWave heightAir tempDewpointWater temp
2017-Oct-31 03:06N 01°18' E 104°10'1 9.9
2017-Oct-31 02:57N 01°19' E 104°09'1 0.1
2017-Oct-30 18:06N 01°19' E 104°08'0 0.2
2017-Oct-30 17:48N 01°19' E 104°08'0 0.2
2017-Oct-30 17:24N 01°19' E 104°08'0 0.0
2017-Oct-30 16:48N 01°19' E 104°08'0 0.0
2017-Oct-30 16:24N 01°19' E 104°08'0 0.0
2017-Oct-30 15:54N 01°19' E 104°08'0 0.0
2017-Oct-30 15:27N 01°19' E 104°08'0 0.0
2017-Oct-30 15:00N 01°19' E 104°08'0 0.0
2017-Oct-30 14:18N 01°19' E 104°08'0 0.0
2017-Oct-30 13:06N 01°19' E 104°08'0 0.0
2017-Oct-30 12:42N 01°19' E 104°08'2 0.3
2017-Oct-30 06:20N 01°19' E 104°06'2 5.6
2017-Oct-30 06:00N 01°20' E 104°05'4 7.3
2017-Oct-30 05:29N 01°22' E 104°02'4 8.2
2017-Oct-30 05:00N 01°24' E 103°58'4 7.6
2017-Oct-30 04:29N 01°26' E 103°55'0 0.1
2017-Oct-30 03:16N 01°26' E 103°54'0 0.1
2017-Oct-30 02:43N 01°26' E 103°55'0 0.2
2017-Oct-30 02:25N 01°26' E 103°54'0 0.0
2017-Oct-30 00:13N 01°26' E 103°54'0 0.0
2017-Oct-29 23:58N 01°26' E 103°54'0 0.0
2017-Oct-29 23:28N 01°26' E 103°54'0 0.0
2017-Oct-29 22:55N 01°26' E 103°54'0 0.1
2017-Oct-29 22:28N 01°26' E 103°55'0 0.1
2017-Oct-29 21:43N 01°26' E 103°54'0 0.1
2017-Oct-29 21:13N 01°26' E 103°55'0 0.1
2017-Oct-29 20:46N 01°26' E 103°54'0 0.0
2017-Oct-29 20:25N 01°26' E 103°54'0 0.0
2017-Oct-29 19:01N 01°26' E 103°54'0 0.2
2017-Oct-29 18:43N 01°26' E 103°55'0 0.0
2017-Oct-29 16:55N 01°26' E 103°54'0 0.1
2017-Oct-29 16:28N 01°26' E 103°55'0 0.1
2017-Oct-29 15:43N 01°26' E 103°54'0 0.0
2017-Oct-29 13:37N 01°26' E 103°54'0 0.0
2017-Oct-29 13:04N 01°26' E 103°54'0 0.0
2017-Oct-29 07:37N 01°26' E 103°54'0 0.0
2017-Oct-29 07:28N 01°26' E 103°54'0 0.0
2017-Oct-29 06:40N 01°26' E 103°54'0 0.0
2017-Oct-29 06:13N 01°26' E 103°54'0 0.0
2017-Oct-29 05:49N 01°26' E 103°54'0 0.0
2017-Oct-29 05:13N 01°26' E 103°54'0 0.0
2017-Oct-29 04:58N 01°26' E 103°54'0 0.0
2017-Oct-29 03:43N 01°26' E 103°54'0 0.0
2017-Oct-28 17:16N 01°26' E 103°54'0 0.0
2017-Oct-28 15:49N 01°26' E 103°54'0 0.0
2017-Oct-28 15:22N 01°26' E 103°54'0 0.0
2017-Oct-28 14:55N 01°26' E 103°54'0 0.0
2017-Oct-28 14:25N 01°26' E 103°54'0 0.0
2017-Oct-28 13:49N 01°26' E 103°54'0 0.0
2017-Oct-28 12:46N 01°26' E 103°54'0 0.1
2017-Oct-28 12:13N 01°26' E 103°55'0 0.2
2017-Oct-28 11:58N 01°26' E 103°54'0 0.0
2017-Oct-28 10:52N 01°26' E 103°54'0 0.0
2017-Oct-28 09:40N 01°26' E 103°54'0 0.0
2017-Oct-28 08:25N 01°26' E 103°54'0 0.0
2017-Oct-28 07:55N 01°26' E 103°54'0 0.0
2017-Oct-28 07:13N 01°26' E 103°54'0 0.0
2017-Oct-28 06:58N 01°26' E 103°54'0 0.0
2017-Oct-28 05:52N 01°26' E 103°54'0 0.0
2017-Oct-28 05:25N 01°26' E 103°54'0 0.0
2017-Oct-28 04:55N 01°26' E 103°54'0 0.0
2017-Oct-28 04:25N 01°26' E 103°54'0 0.0
2017-Oct-28 03:55N 01°26' E 103°54'0 0.0
2017-Oct-28 02:34N 01°26' E 103°54'0 0.0
2017-Oct-28 02:13N 01°26' E 103°54'0 0.0
2017-Oct-28 01:58N 01°26' E 103°54'0 0.0
2017-Oct-28 00:46N 01°26' E 103°55'0 0.2
2017-Oct-28 00:25N 01°26' E 103°54'0 0.0
2017-Oct-27 21:37N 01°26' E 103°54'0 0.0
2017-Oct-27 21:22N 01°26' E 103°54'0 0.0
2017-Oct-27 20:46N 01°26' E 103°54'0 0.0
2017-Oct-27 20:25N 01°26' E 103°54'0 0.0
2017-Oct-27 19:49N 01°26' E 103°54'0 0.0
2017-Oct-27 19:28N 01°26' E 103°54'0 0.0
2017-Oct-27 18:55N 01°26' E 103°54'0 0.0
2017-Oct-27 18:25N 01°26' E 103°54'0 0.0
2017-Oct-27 14:43N 01°26' E 103°54'0 0.0
2017-Oct-27 13:19N 01°26' E 103°54'0 0.0
2017-Oct-27 12:49N 01°26' E 103°54'0 0.0
2017-Oct-27 12:13N 01°26' E 103°54'0 0.0
2017-Oct-27 11:55N 01°26' E 103°54'0 0.0
2017-Oct-27 10:43N 01°26' E 103°54'0 0.0
2017-Oct-27 10:13N 01°26' E 103°54'0 0.0
2017-Oct-27 08:25N 01°26' E 103°54'0 0.0
2017-Oct-27 07:49N 01°26' E 103°54'0 0.0
2017-Oct-27 07:30N 01°26' E 103°54'1 1.1
2017-Oct-27 06:58N 01°26' E 103°55'4 7.3
2017-Oct-27 06:29N 01°24' E 103°58'510.1
2017-Oct-27 05:58N 01°22' E 104°03'4 8.1
2017-Oct-27 05:30N 01°19' E 104°05'2 4.0
2017-Oct-27 04:58N 01°17' E 104°07'6 6.4
2017-Oct-27 04:03N 01°15' E 104°01'110.5
2017-Oct-27 03:59N 01°15' E 104°01'510.5
2017-Oct-27 03:30N 01°13' E 103°56'510.2
2017-Oct-27 02:59N 01°11' E 103°51'5 9.6
2017-Oct-27 02:30N 01°09' E 103°47'510.0
2017-Oct-27 02:00N 01°05' E 103°44'510.3
2017-Oct-27 01:30N 01°03' E 103°39'611.2
2017-Oct-27 00:58N 01°06' E 103°34'612.4
2017-Oct-27 00:30N 01°09' E 103°29'712.6
2017-Oct-26 23:59N 01°12' E 103°24'612.6
2017-Oct-26 23:29N 01°17' E 103°19'  
Track history (hours):
 
Tides and Currents Weather Stations Pressure Air Temp Water Temp Dewpoint Dewpoint Depression Visibility Wind Speed Wind Dir Waves Ship Positions

Eco Spitfire

Last reported at 2017-Oct-31 03:06 UTC. Time now 2017-Nov-23 20:43 UTC.
Position N 01°18' E 104°10'.
Warning: this ship's position is 23 days out of date.

Length 180 m; draft 8.7 m.

Type: Ship. MMSI: 235102885.

Date/timePositionNaut miles runAvg speedWind from/ knotsBaromVisibWave heightAir tempDewpointWater temp
2017-Oct-31 03:06N 01°18' E 104°10'1 9.9
2017-Oct-31 02:57N 01°19' E 104°09'1 0.1
2017-Oct-30 18:06N 01°19' E 104°08'0 0.2
2017-Oct-30 17:48N 01°19' E 104°08'0 0.2
2017-Oct-30 17:24N 01°19' E 104°08'0 0.0
2017-Oct-30 16:48N 01°19' E 104°08'0 0.0
2017-Oct-30 16:24N 01°19' E 104°08'0 0.0
2017-Oct-30 15:54N 01°19' E 104°08'0 0.0
2017-Oct-30 15:27N 01°19' E 104°08'0 0.0
2017-Oct-30 15:00N 01°19' E 104°08'0 0.0
2017-Oct-30 14:18N 01°19' E 104°08'0 0.0
2017-Oct-30 13:06N 01°19' E 104°08'0 0.0
2017-Oct-30 12:42N 01°19' E 104°08'2 0.3
2017-Oct-30 06:20N 01°19' E 104°06'2 5.6
2017-Oct-30 06:00N 01°20' E 104°05'4 7.3
2017-Oct-30 05:29N 01°22' E 104°02'4 8.2
2017-Oct-30 05:00N 01°24' E 103°58'4 7.6
2017-Oct-30 04:29N 01°26' E 103°55'0 0.1
2017-Oct-30 03:16N 01°26' E 103°54'0 0.1
2017-Oct-30 02:43N 01°26' E 103°55'0 0.2
2017-Oct-30 02:25N 01°26' E 103°54'0 0.0
2017-Oct-30 00:13N 01°26' E 103°54'0 0.0
2017-Oct-29 23:58N 01°26' E 103°54'0 0.0
2017-Oct-29 23:28N 01°26' E 103°54'0 0.0
2017-Oct-29 22:55N 01°26' E 103°54'0 0.1
2017-Oct-29 22:28N 01°26' E 103°55'0 0.1
2017-Oct-29 21:43N 01°26' E 103°54'0 0.1
2017-Oct-29 21:13N 01°26' E 103°55'0 0.1
2017-Oct-29 20:46N 01°26' E 103°54'0 0.0
2017-Oct-29 20:25N 01°26' E 103°54'0 0.0
2017-Oct-29 19:01N 01°26' E 103°54'0 0.2
2017-Oct-29 18:43N 01°26' E 103°55'0 0.0
2017-Oct-29 16:55N 01°26' E 103°54'0 0.1
2017-Oct-29 16:28N 01°26' E 103°55'0 0.1
2017-Oct-29 15:43N 01°26' E 103°54'0 0.0
2017-Oct-29 13:37N 01°26' E 103°54'0 0.0
2017-Oct-29 13:04N 01°26' E 103°54'0 0.0
2017-Oct-29 07:37N 01°26' E 103°54'0 0.0
2017-Oct-29 07:28N 01°26' E 103°54'0 0.0
2017-Oct-29 06:40N 01°26' E 103°54'0 0.0
2017-Oct-29 06:13N 01°26' E 103°54'0 0.0
2017-Oct-29 05:49N 01°26' E 103°54'0 0.0
2017-Oct-29 05:13N 01°26' E 103°54'0 0.0
2017-Oct-29 04:58N 01°26' E 103°54'0 0.0
2017-Oct-29 03:43N 01°26' E 103°54'0 0.0
2017-Oct-28 17:16N 01°26' E 103°54'0 0.0
2017-Oct-28 15:49N 01°26' E 103°54'0 0.0
2017-Oct-28 15:22N 01°26' E 103°54'0 0.0
2017-Oct-28 14:55N 01°26' E 103°54'0 0.0
2017-Oct-28 14:25N 01°26' E 103°54'0 0.0
2017-Oct-28 13:49N 01°26' E 103°54'0 0.0
2017-Oct-28 12:46N 01°26' E 103°54'0 0.1
2017-Oct-28 12:13N 01°26' E 103°55'0 0.2
2017-Oct-28 11:58N 01°26' E 103°54'0 0.0
2017-Oct-28 10:52N 01°26' E 103°54'0 0.0
2017-Oct-28 09:40N 01°26' E 103°54'0 0.0
2017-Oct-28 08:25N 01°26' E 103°54'0 0.0
2017-Oct-28 07:55N 01°26' E 103°54'0 0.0
2017-Oct-28 07:13N 01°26' E 103°54'0 0.0
2017-Oct-28 06:58N 01°26' E 103°54'0 0.0
2017-Oct-28 05:52N 01°26' E 103°54'0 0.0
2017-Oct-28 05:25N 01°26' E 103°54'0 0.0
2017-Oct-28 04:55N 01°26' E 103°54'0 0.0
2017-Oct-28 04:25N 01°26' E 103°54'0 0.0
2017-Oct-28 03:55N 01°26' E 103°54'0 0.0
2017-Oct-28 02:34N 01°26' E 103°54'0 0.0
2017-Oct-28 02:13N 01°26' E 103°54'0 0.0
2017-Oct-28 01:58N 01°26' E 103°54'0 0.0
2017-Oct-28 00:46N 01°26' E 103°55'0 0.2
2017-Oct-28 00:25N 01°26' E 103°54'0 0.0
2017-Oct-27 21:37N 01°26' E 103°54'0 0.0
2017-Oct-27 21:22N 01°26' E 103°54'0 0.0
2017-Oct-27 20:46N 01°26' E 103°54'0 0.0
2017-Oct-27 20:25N 01°26' E 103°54'0 0.0
2017-Oct-27 19:49N 01°26' E 103°54'0 0.0
2017-Oct-27 19:28N 01°26' E 103°54'0 0.0
2017-Oct-27 18:55N 01°26' E 103°54'0 0.0
2017-Oct-27 18:25N 01°26' E 103°54'0 0.0
2017-Oct-27 14:43N 01°26' E 103°54'0 0.0
2017-Oct-27 13:19N 01°26' E 103°54'0 0.0
2017-Oct-27 12:49N 01°26' E 103°54'0 0.0
2017-Oct-27 12:13N 01°26' E 103°54'0 0.0
2017-Oct-27 11:55N 01°26' E 103°54'0 0.0
2017-Oct-27 10:43N 01°26' E 103°54'0 0.0
2017-Oct-27 10:13N 01°26' E 103°54'0 0.0
2017-Oct-27 08:25N 01°26' E 103°54'0 0.0
2017-Oct-27 07:49N 01°26' E 103°54'0 0.0
2017-Oct-27 07:30N 01°26' E 103°54'1 1.1
2017-Oct-27 06:58N 01°26' E 103°55'4 7.3
2017-Oct-27 06:29N 01°24' E 103°58'510.1
2017-Oct-27 05:58N 01°22' E 104°03'4 8.1
2017-Oct-27 05:30N 01°19' E 104°05'2 4.0
2017-Oct-27 04:58N 01°17' E 104°07'6 6.4
2017-Oct-27 04:03N 01°15' E 104°01'110.5
2017-Oct-27 03:59N 01°15' E 104°01'510.5
2017-Oct-27 03:30N 01°13' E 103°56'510.2
2017-Oct-27 02:59N 01°11' E 103°51'5 9.6
2017-Oct-27 02:30N 01°09' E 103°47'510.0
2017-Oct-27 02:00N 01°05' E 103°44'510.3
2017-Oct-27 01:30N 01°03' E 103°39'611.2
2017-Oct-27 00:58N 01°06' E 103°34'612.4
2017-Oct-27 00:30N 01°09' E 103°29'712.6
2017-Oct-26 23:59N 01°12' E 103°24'612.6
2017-Oct-26 23:29N 01°17' E 103°19'  

Dump ship's entire track history